createdAt,value
2017-08-13T00:01:09.034Z,85.30
2017-08-13T00:03:37.078Z,85.40
2017-08-13T00:06:04.714Z,85.40
2017-08-13T00:08:32.449Z,85.40
2017-08-13T00:11:00.093Z,85.20
2017-08-13T00:13:27.839Z,85.40
2017-08-13T00:15:55.688Z,85.40
2017-08-13T00:18:23.332Z,85.40
2017-08-13T00:20:50.976Z,85.30
2017-08-13T00:23:18.666Z,85.30
2017-08-13T00:25:46.369Z,85.20
2017-08-13T00:28:14.116Z,85.10
2017-08-13T00:30:41.864Z,85.10
2017-08-13T00:33:09.851Z,85.30
2017-08-13T00:35:37.562Z,85.10
2017-08-13T00:38:05.274Z,85.30
2017-08-13T00:40:32.928Z,85.40
2017-08-13T00:43:00.582Z,85.40
2017-08-13T00:45:28.349Z,85.10
2017-08-13T00:47:56.034Z,85.00
2017-08-13T00:50:23.696Z,85.10
2017-08-13T00:52:51.403Z,85.20
2017-08-13T00:55:19.544Z,85.30
2017-08-13T00:57:47.170Z,85.30
2017-08-13T01:00:15.139Z,85.40
2017-08-13T01:02:42.886Z,85.70
2017-08-13T01:05:10.536Z,85.60
2017-08-13T01:07:38.278Z,85.80
2017-08-13T01:10:05.913Z,85.70
2017-08-13T01:12:33.553Z,86.00
2017-08-13T01:15:01.234Z,86.10
2017-08-13T01:17:28.963Z,86.00
2017-08-13T01:19:56.633Z,85.70
2017-08-13T01:22:24.721Z,85.40
2017-08-13T01:24:52.515Z,85.40
2017-08-13T01:27:20.161Z,85.40
2017-08-13T01:29:47.903Z,85.10
2017-08-13T01:32:15.650Z,84.90
2017-08-13T01:34:43.282Z,85.00
2017-08-13T01:37:10.969Z,85.00
2017-08-13T01:39:38.611Z,85.10
2017-08-13T01:42:06.331Z,85.00
2017-08-13T01:44:34.027Z,84.90
2017-08-13T01:47:01.702Z,84.60
2017-08-13T01:49:29.374Z,84.80
2017-08-13T01:51:57.119Z,84.80
2017-08-13T01:54:24.865Z,84.90
2017-08-13T01:56:52.498Z,85.30
2017-08-13T01:59:20.557Z,85.30
2017-08-13T02:01:48.208Z,85.40
2017-08-13T02:04:15.843Z,85.50
2017-08-13T02:06:43.601Z,85.80
2017-08-13T02:09:11.235Z,85.80
2017-08-13T02:11:38.861Z,85.60
2017-08-13T02:14:06.636Z,85.70
2017-08-13T02:16:34.284Z,85.80
2017-08-13T02:19:02.033Z,85.80
2017-08-13T02:21:29.714Z,85.40
2017-08-13T02:23:57.833Z,85.30
2017-08-13T02:26:25.580Z,85.30
2017-08-13T02:28:53.282Z,85.50
2017-08-13T02:31:20.911Z,85.30
2017-08-13T02:33:48.622Z,85.50
2017-08-13T02:36:16.298Z,85.60
2017-08-13T02:38:44.317Z,86.00
2017-08-13T02:41:11.959Z,86.00
2017-08-13T02:43:39.650Z,85.90
2017-08-13T02:46:07.455Z,85.80
2017-08-13T02:48:35.090Z,86.10
2017-08-13T02:51:02.779Z,86.00
2017-08-13T02:53:30.418Z,86.10
2017-08-13T02:55:58.139Z,85.90
2017-08-13T02:58:25.890Z,86.10
2017-08-13T03:00:53.519Z,86.20
2017-08-13T03:03:21.153Z,86.00
2017-08-13T03:05:48.836Z,85.60
2017-08-13T03:08:16.873Z,85.80
2017-08-13T03:10:44.510Z,85.90
2017-08-13T03:13:12.266Z,85.60
2017-08-13T03:15:39.907Z,85.40
2017-08-13T03:18:07.556Z,85.40
2017-08-13T03:20:35.241Z,85.50
2017-08-13T03:23:03.265Z,85.50
2017-08-13T03:25:31.005Z,85.50
2017-08-13T03:27:58.711Z,85.60
2017-08-13T03:30:26.609Z,85.80
2017-08-13T03:32:54.349Z,85.90
2017-08-13T03:35:22.033Z,85.60
2017-08-13T03:37:50.150Z,85.30
2017-08-13T03:40:17.786Z,85.30
2017-08-13T03:42:45.482Z,85.30
2017-08-13T03:45:13.187Z,85.10
2017-08-13T03:47:40.938Z,85.00
2017-08-13T03:50:08.629Z,85.10
2017-08-13T03:52:36.326Z,85.30
2017-08-13T03:55:03.974Z,85.50
2017-08-13T03:57:31.824Z,85.50
2017-08-13T03:59:59.473Z,85.60
2017-08-13T04:02:27.216Z,85.80
2017-08-13T04:04:54.910Z,86.00
2017-08-13T04:07:22.547Z,86.20
2017-08-13T04:09:50.182Z,86.00
2017-08-13T04:12:17.946Z,86.50
2017-08-13T04:14:45.578Z,86.30
2017-08-13T04:17:13.214Z,86.50
2017-08-13T04:19:41.297Z,86.80
2017-08-13T04:22:08.926Z,86.80
2017-08-13T04:24:36.562Z,86.80
2017-08-13T04:27:04.383Z,87.00
2017-08-13T04:29:32.136Z,87.30
2017-08-13T04:31:59.944Z,87.20
2017-08-13T04:34:27.628Z,87.20
2017-08-13T04:36:55.271Z,87.60
2017-08-13T04:39:22.910Z,87.80
2017-08-13T04:41:50.601Z,88.30
2017-08-13T04:44:18.242Z,88.60
2017-08-13T04:46:45.951Z,89.10
2017-08-13T04:49:13.629Z,88.90
2017-08-13T04:51:41.341Z,89.30
2017-08-13T04:54:08.971Z,89.00
2017-08-13T04:56:36.666Z,89.60
2017-08-13T04:59:04.789Z,89.30
2017-08-13T05:01:32.434Z,89.30
2017-08-13T05:04:00.114Z,89.00
2017-08-13T05:06:28.237Z,89.40
2017-08-13T05:08:55.882Z,89.40
2017-08-13T05:11:23.733Z,89.40
2017-08-13T05:13:51.372Z,89.90
2017-08-13T05:16:19.020Z,89.40
2017-08-13T05:18:46.870Z,89.40
2017-08-13T05:21:14.616Z,89.60
2017-08-13T05:23:42.261Z,89.90
2017-08-13T05:26:09.942Z,89.70
2017-08-13T05:28:37.655Z,89.10
2017-08-13T05:31:05.297Z,88.60
2017-08-13T05:33:33.049Z,88.40
2017-08-13T05:36:00.796Z,88.40
2017-08-13T05:38:28.435Z,88.80
2017-08-13T05:40:56.130Z,89.20
2017-08-13T05:43:23.789Z,88.60
2017-08-13T05:45:51.434Z,88.50
2017-08-13T05:48:19.126Z,87.40
2017-08-13T05:50:46.868Z,87.50
2017-08-13T05:53:14.513Z,86.60
2017-08-13T05:55:42.261Z,86.50
2017-08-13T05:58:09.897Z,85.60
2017-08-13T06:00:37.550Z,85.40
2017-08-13T06:03:05.297Z,84.90
2017-08-13T06:05:32.930Z,83.80
2017-08-13T06:08:00.558Z,83.80
2017-08-13T06:10:28.339Z,83.90
2017-08-13T06:12:55.983Z,84.00
2017-08-13T06:15:23.614Z,83.80
2017-08-13T06:17:51.299Z,84.20
2017-08-13T06:20:18.930Z,83.40
2017-08-13T06:22:46.663Z,84.00
2017-08-13T06:25:14.377Z,84.10
2017-08-13T06:27:42.016Z,83.80
2017-08-13T06:30:09.804Z,84.00
2017-08-13T06:32:37.500Z,83.70
2017-08-13T06:35:05.194Z,83.00
2017-08-13T06:37:32.830Z,82.30
2017-08-13T06:40:00.589Z,81.60
2017-08-13T06:42:28.336Z,80.80
2017-08-13T06:44:55.971Z,79.80
2017-08-13T06:47:23.654Z,79.50
2017-08-13T06:49:51.691Z,76.50
2017-08-13T06:52:19.427Z,76.50
2017-08-13T06:54:47.276Z,75.70
2017-08-13T06:57:14.907Z,74.30
2017-08-13T06:59:42.566Z,73.30
2017-08-13T07:02:10.285Z,74.00
2017-08-13T07:04:37.926Z,74.00
2017-08-13T07:07:05.562Z,72.90
2017-08-13T07:09:33.352Z,73.60
2017-08-13T07:12:00.997Z,73.90
2017-08-13T07:14:28.642Z,74.20
2017-08-13T07:16:56.401Z,74.70
2017-08-13T07:19:24.135Z,74.20
2017-08-13T07:21:51.780Z,75.10
2017-08-13T07:24:19.528Z,75.70
2017-08-13T07:26:47.169Z,75.00
2017-08-13T07:29:14.817Z,74.70
2017-08-13T07:31:42.570Z,73.40
2017-08-13T07:34:10.206Z,73.50
2017-08-13T07:36:37.841Z,72.20
2017-08-13T07:39:05.601Z,72.60
2017-08-13T07:41:33.248Z,73.40
2017-08-13T07:44:00.893Z,71.40
2017-08-13T07:46:28.660Z,69.60
2017-08-13T07:48:56.338Z,69.10
2017-08-13T07:51:24.444Z,68.90
2017-08-13T07:53:52.121Z,68.10
2017-08-13T07:56:20.148Z,67.20
2017-08-13T07:58:47.786Z,67.20
2017-08-13T08:01:15.471Z,65.50
2017-08-13T08:03:43.588Z,65.30
2017-08-13T08:06:11.208Z,65.30
2017-08-13T08:08:38.937Z,64.80
2017-08-13T08:11:06.581Z,66.70
2017-08-13T08:13:34.226Z,64.50
2017-08-13T08:16:01.902Z,63.20
2017-08-13T08:18:30.074Z,62.50
2017-08-13T08:20:57.703Z,62.50
2017-08-13T08:23:25.832Z,64.00
2017-08-13T08:25:53.477Z,64.00
2017-08-13T08:28:21.110Z,64.70
2017-08-13T08:30:48.870Z,63.30
2017-08-13T08:33:16.498Z,62.60
2017-08-13T08:35:44.158Z,64.20
2017-08-13T08:38:11.906Z,64.90
2017-08-13T08:40:39.533Z,63.50
2017-08-13T08:43:07.197Z,63.70
2017-08-13T08:45:34.982Z,64.30
2017-08-13T08:48:02.690Z,64.90
2017-08-13T08:50:30.313Z,65.20
2017-08-13T08:52:58.085Z,64.80
2017-08-13T08:55:25.714Z,62.90
2017-08-13T08:57:53.372Z,65.40
2017-08-13T09:00:21.122Z,65.70
2017-08-13T09:02:48.756Z,63.40
2017-08-13T09:05:16.513Z,61.80
2017-08-13T09:07:44.259Z,64.00
2017-08-13T09:10:12.008Z,61.80
2017-08-13T09:12:39.650Z,61.30
2017-08-13T09:15:07.398Z,62.00
2017-08-13T09:17:35.046Z,62.50
2017-08-13T09:20:02.790Z,63.60
2017-08-13T09:22:30.574Z,62.00
2017-08-13T09:24:58.715Z,63.00
2017-08-13T09:27:26.341Z,63.10
2017-08-13T09:29:54.191Z,61.00
2017-08-13T09:32:21.810Z,61.80
2017-08-13T09:34:49.481Z,61.10
2017-08-13T09:37:17.158Z,60.50
2017-08-13T09:39:45.282Z,60.00
2017-08-13T09:42:12.927Z,60.00
2017-08-13T09:44:40.609Z,61.00
2017-08-13T09:47:08.630Z,58.00
2017-08-13T09:49:36.270Z,58.00
2017-08-13T09:52:04.018Z,59.30
2017-08-13T09:54:31.647Z,59.50
2017-08-13T09:56:59.310Z,60.50
2017-08-13T09:59:27.058Z,58.40
2017-08-13T10:01:54.766Z,59.60
2017-08-13T10:04:22.551Z,59.70
2017-08-13T10:06:50.232Z,59.80
2017-08-13T10:09:18.254Z,59.80
2017-08-13T10:11:45.999Z,59.80
2017-08-13T10:14:13.672Z,60.10
2017-08-13T10:16:41.800Z,61.20
2017-08-13T10:19:09.444Z,61.20
2017-08-13T10:21:37.142Z,58.80
2017-08-13T10:24:04.840Z,57.60
2017-08-13T10:26:32.486Z,56.30
2017-08-13T10:29:00.182Z,57.40
2017-08-13T10:31:27.875Z,57.30
2017-08-13T10:33:55.520Z,58.90
2017-08-13T10:36:23.203Z,58.90
2017-08-13T10:38:51.321Z,59.90
2017-08-13T10:41:18.949Z,59.90
2017-08-13T10:43:46.646Z,59.00
2017-08-13T10:46:14.358Z,60.80
2017-08-13T10:48:41.982Z,58.80
2017-08-13T10:51:09.750Z,59.30
2017-08-13T10:53:37.393Z,60.10
2017-08-13T10:56:05.038Z,59.10
2017-08-13T10:58:32.738Z,61.80
2017-08-13T11:01:00.367Z,60.80
2017-08-13T11:03:28.489Z,59.40
2017-08-13T11:05:56.192Z,59.40
2017-08-13T11:08:23.880Z,59.90
2017-08-13T11:10:51.628Z,60.20
2017-08-13T11:13:19.374Z,59.30
2017-08-13T11:15:47.010Z,61.40
2017-08-13T11:18:14.665Z,63.10
2017-08-13T11:20:42.411Z,63.10
2017-08-13T11:23:10.156Z,61.50
2017-08-13T11:25:37.786Z,62.80
2017-08-13T11:28:05.550Z,61.70
2017-08-13T11:30:33.503Z,62.10
2017-08-13T11:33:01.134Z,62.40
2017-08-13T11:35:28.810Z,63.60
2017-08-13T11:37:56.542Z,62.80
2017-08-13T11:40:24.186Z,64.60
2017-08-13T11:42:51.870Z,62.10
2017-08-13T11:45:19.578Z,62.40
2017-08-13T11:47:47.205Z,59.10
2017-08-13T11:50:14.969Z,58.70
2017-08-13T11:52:42.717Z,58.60
2017-08-13T11:55:10.464Z,58.30
2017-08-13T11:57:38.141Z,59.10
2017-08-13T12:00:06.265Z,57.50
2017-08-13T12:02:34.012Z,57.50
2017-08-13T12:05:01.760Z,56.50
2017-08-13T12:07:29.395Z,55.30
2017-08-13T12:09:57.026Z,55.70
2017-08-13T12:12:24.712Z,56.40
2017-08-13T12:14:52.347Z,58.00
2017-08-13T12:17:19.978Z,58.00
2017-08-13T12:19:47.667Z,57.80
2017-08-13T12:22:15.994Z,58.00
2017-08-13T12:24:43.740Z,58.00
2017-08-13T12:27:11.418Z,57.40
2017-08-13T12:29:39.447Z,57.10
2017-08-13T12:32:07.126Z,57.10
2017-08-13T12:34:34.811Z,55.10
2017-08-13T12:37:02.442Z,56.30
2017-08-13T12:39:30.125Z,57.70
2017-08-13T12:41:57.827Z,56.60
2017-08-13T12:44:25.458Z,57.90
2017-08-13T12:46:53.090Z,56.90
2017-08-13T12:49:20.763Z,57.00
2017-08-13T12:51:48.394Z,55.90
2017-08-13T12:54:16.038Z,55.10
2017-08-13T12:56:43.708Z,55.90
2017-08-13T12:59:11.337Z,53.30
2017-08-13T13:01:39.135Z,54.20
2017-08-13T13:04:06.830Z,53.60
2017-08-13T13:06:34.474Z,52.40
2017-08-13T13:09:02.126Z,52.60
2017-08-13T13:11:29.814Z,51.70
2017-08-13T13:13:57.452Z,51.00
2017-08-13T13:16:25.103Z,50.40
2017-08-13T13:18:52.851Z,50.80
2017-08-13T13:21:20.473Z,53.20
2017-08-13T13:23:48.139Z,54.30
2017-08-13T13:26:15.822Z,55.90
2017-08-13T13:28:43.942Z,55.20
2017-08-13T13:31:11.569Z,55.20
2017-08-13T13:33:39.333Z,56.40
2017-08-13T13:36:06.979Z,57.50
2017-08-13T13:38:34.725Z,57.30
2017-08-13T13:41:02.411Z,59.00
2017-08-13T13:43:30.046Z,58.40
2017-08-13T13:45:58.078Z,58.50
2017-08-13T13:48:25.763Z,58.60
2017-08-13T13:50:53.394Z,58.10
2017-08-13T13:53:21.518Z,57.80
2017-08-13T13:55:49.265Z,57.90
2017-08-13T13:58:16.894Z,54.70
2017-08-13T14:00:44.529Z,55.50
2017-08-13T14:03:12.234Z,56.20
2017-08-13T14:05:40.262Z,56.10
2017-08-13T14:08:07.885Z,56.10
2017-08-13T14:10:35.583Z,55.00
2017-08-13T14:13:03.701Z,54.30
2017-08-13T14:15:32.263Z,54.30
2017-08-13T14:17:59.945Z,54.60
2017-08-13T14:20:27.978Z,54.50
2017-08-13T14:22:55.606Z,54.50
2017-08-13T14:27:57.230Z,55.00
2017-08-13T14:30:24.998Z,54.60
2017-08-13T14:32:52.629Z,55.80
2017-08-13T14:35:20.287Z,57.20
2017-08-13T14:37:48.036Z,57.30
2017-08-13T14:40:15.679Z,58.10
2017-08-13T14:42:43.306Z,60.30
2017-08-13T14:45:10.981Z,59.50
2017-08-13T14:47:38.615Z,59.40
2017-08-13T14:50:06.249Z,60.30
2017-08-13T14:52:33.948Z,59.30
2017-08-13T14:55:01.587Z,59.70
2017-08-13T14:57:29.622Z,59.00
2017-08-13T14:59:57.353Z,59.00
2017-08-13T15:02:25.100Z,59.40
2017-08-13T15:04:52.743Z,59.10
2017-08-13T15:07:20.430Z,58.40
2017-08-13T15:09:48.062Z,58.80
2017-08-13T15:12:16.088Z,58.90
2017-08-13T15:14:43.786Z,59.00
2017-08-13T15:17:11.480Z,59.70
2017-08-13T15:19:39.124Z,60.20
2017-08-13T15:22:06.906Z,60.60
2017-08-13T15:24:35.028Z,62.60
2017-08-13T15:27:02.776Z,62.60
2017-08-13T15:29:30.449Z,61.80
2017-08-13T15:31:58.580Z,62.80
2017-08-13T15:34:26.225Z,62.80
2017-08-13T15:36:53.993Z,61.10
2017-08-13T15:39:22.218Z,61.50
2017-08-13T15:41:49.878Z,61.50
2017-08-13T15:44:17.597Z,62.20
2017-08-13T15:46:45.370Z,62.30
2017-08-13T15:49:13.116Z,61.90
2017-08-13T15:51:40.864Z,61.80
2017-08-13T15:54:08.516Z,63.60
2017-08-13T15:56:36.158Z,64.20
2017-08-13T15:59:03.838Z,64.20
2017-08-13T16:01:31.861Z,64.50
2017-08-13T16:03:59.485Z,64.50
2017-08-13T16:06:27.252Z,64.60
2017-08-13T16:08:54.886Z,65.00
2017-08-13T16:11:22.509Z,64.30
2017-08-13T16:13:50.284Z,63.70
2017-08-13T16:16:17.911Z,63.80
2017-08-13T16:18:45.573Z,64.20
2017-08-13T16:21:13.321Z,64.00
2017-08-13T16:23:40.968Z,62.70
2017-08-13T16:26:08.610Z,62.80
2017-08-13T16:28:36.357Z,63.00
2017-08-13T16:31:04.001Z,62.80
2017-08-13T16:33:31.646Z,63.20
2017-08-13T16:35:59.397Z,63.60
2017-08-13T16:38:27.041Z,63.70
2017-08-13T16:40:54.685Z,63.30
2017-08-13T16:43:22.374Z,64.30
2017-08-13T16:45:50.007Z,64.00
2017-08-13T16:48:18.132Z,63.10
2017-08-13T16:50:45.821Z,63.10
2017-08-13T16:53:13.524Z,63.90
2017-08-13T16:55:41.272Z,64.20
2017-08-13T16:58:09.019Z,63.40
2017-08-13T17:00:36.654Z,64.30
2017-08-13T17:03:04.302Z,64.00
2017-08-13T17:05:31.994Z,64.50
2017-08-13T17:08:00.021Z,64.60
2017-08-13T17:10:27.655Z,64.60
2017-08-13T17:12:55.402Z,64.90
2017-08-13T17:15:23.026Z,64.90
2017-08-13T17:17:50.650Z,64.20
2017-08-13T17:20:18.348Z,64.20
2017-08-13T17:22:46.083Z,64.90
2017-08-13T17:25:13.724Z,64.90
2017-08-13T17:27:41.394Z,65.50
2017-08-13T17:30:09.022Z,65.60
2017-08-13T17:32:36.766Z,65.90
2017-08-13T17:35:04.447Z,65.90
2017-08-13T17:37:32.471Z,66.40
2017-08-13T17:40:00.215Z,66.50
2017-08-13T17:42:27.886Z,66.50
2017-08-13T17:44:55.915Z,68.00
2017-08-13T17:47:23.542Z,68.10
2017-08-13T17:49:51.217Z,68.80
2017-08-13T17:52:18.849Z,69.50
2017-08-13T17:54:46.593Z,69.70
2017-08-13T17:57:14.340Z,70.10
2017-08-13T17:59:41.969Z,70.50
2017-08-13T18:02:09.606Z,70.80
2017-08-13T18:04:37.378Z,70.50
2017-08-13T18:07:05.014Z,70.70
2017-08-13T18:09:32.645Z,70.80
2017-08-13T18:12:00.330Z,71.10
2017-08-13T18:14:28.062Z,70.90
2017-08-13T18:16:55.694Z,71.30
2017-08-13T18:19:23.453Z,72.00
2017-08-13T18:21:51.086Z,72.60
2017-08-13T18:24:18.715Z,73.20
2017-08-13T18:26:49.734Z,73.30
2017-08-13T18:29:17.417Z,73.20
2017-08-13T18:31:46.864Z,73.50
2017-08-13T18:34:14.647Z,74.00
2017-08-13T18:36:42.291Z,74.20
2017-08-13T18:39:09.936Z,74.40
2017-08-13T18:41:37.642Z,75.10
2017-08-13T18:44:05.290Z,75.60
2017-08-13T18:46:33.074Z,76.40
2017-08-13T18:49:00.757Z,76.50
2017-08-13T18:51:28.837Z,77.10
2017-08-13T18:53:56.474Z,77.10
2017-08-13T18:56:24.169Z,77.30
2017-08-13T18:58:51.918Z,77.60
2017-08-13T19:01:19.554Z,77.60
2017-08-13T19:03:47.245Z,77.40
2017-08-13T19:06:14.885Z,77.80
2017-08-13T19:08:42.534Z,78.00
2017-08-13T19:11:10.618Z,77.90
2017-08-13T19:13:38.250Z,77.90
2017-08-13T19:16:05.941Z,78.40
2017-08-13T19:18:33.628Z,78.60
2017-08-13T19:21:01.333Z,78.70
2017-08-13T19:23:28.968Z,78.70
2017-08-13T19:25:56.664Z,78.90
2017-08-13T19:28:24.782Z,79.30
2017-08-13T19:30:52.530Z,79.30
2017-08-13T19:33:20.630Z,79.70
2017-08-13T19:35:48.274Z,79.70
2017-08-13T19:38:15.978Z,79.50
2017-08-13T19:40:43.722Z,79.20
2017-08-13T19:43:12.106Z,78.90
2017-08-13T19:45:40.240Z,78.70
2017-08-13T19:48:07.926Z,78.70
2017-08-13T19:50:36.045Z,78.70
2017-08-13T19:53:03.789Z,78.70
2017-08-13T19:55:31.598Z,78.60
2017-08-13T19:57:59.258Z,78.60
2017-08-13T20:00:26.991Z,78.60
2017-08-13T20:02:54.780Z,78.80
2017-08-13T20:05:22.408Z,78.80
2017-08-13T20:07:50.172Z,79.50
2017-08-13T20:10:17.850Z,79.70
2017-08-13T20:12:45.899Z,80.30
2017-08-13T20:15:14.027Z,79.90
2017-08-13T20:17:41.776Z,79.90
2017-08-13T20:20:09.419Z,80.00
2017-08-13T20:22:37.067Z,80.40
2017-08-13T20:25:04.787Z,80.80
2017-08-13T20:27:32.562Z,81.20
2017-08-13T20:30:00.221Z,81.20
2017-08-13T20:32:28.057Z,81.30
2017-08-13T20:34:55.695Z,81.50
2017-08-13T20:37:23.338Z,82.10
2017-08-13T20:39:51.010Z,82.20
2017-08-13T20:42:18.649Z,81.70
2017-08-13T20:44:46.286Z,81.50
2017-08-13T20:47:14.025Z,82.00
2017-08-13T20:49:41.654Z,82.40
2017-08-13T20:52:09.311Z,82.70
2017-08-13T20:54:37.000Z,82.60
2017-08-13T20:57:05.041Z,81.90
2017-08-13T20:59:33.068Z,81.70
2017-08-13T21:02:00.816Z,81.70
2017-08-13T21:04:28.568Z,81.50
2017-08-13T21:06:56.318Z,81.90
2017-08-13T21:09:24.018Z,82.10
2017-08-13T21:11:51.662Z,82.10
2017-08-13T21:14:19.301Z,81.70
2017-08-13T21:16:47.098Z,81.60
2017-08-13T21:19:14.844Z,81.30
2017-08-13T21:21:42.481Z,81.60
2017-08-13T21:24:10.236Z,82.00
2017-08-13T21:26:37.869Z,82.10
2017-08-13T21:29:05.498Z,82.00
2017-08-13T21:31:33.273Z,82.00
2017-08-13T21:34:01.122Z,82.20
2017-08-13T21:36:28.798Z,82.50
2017-08-13T21:38:56.914Z,82.90
2017-08-13T21:41:24.570Z,82.90
2017-08-13T21:43:52.209Z,83.30
2017-08-13T21:46:19.891Z,83.30
2017-08-13T21:48:47.931Z,83.20
2017-08-13T21:51:15.667Z,83.20
2017-08-13T21:53:43.366Z,83.20
2017-08-13T21:56:11.067Z,83.40
2017-08-13T21:58:38.714Z,83.60
2017-08-13T22:01:06.434Z,84.00
2017-08-13T22:03:39.937Z,84.00
2017-08-13T22:06:08.062Z,83.90
2017-08-13T22:08:35.707Z,83.90
2017-08-13T22:11:03.342Z,84.10
2017-08-13T22:13:31.028Z,84.10
2017-08-13T22:15:58.767Z,84.20
2017-08-13T22:18:26.406Z,84.20
2017-08-13T22:20:54.178Z,84.40
2017-08-13T22:23:21.820Z,84.10
2017-08-13T22:25:49.554Z,84.00
2017-08-13T22:28:17.300Z,84.10
2017-08-13T22:30:44.939Z,84.20
2017-08-13T22:33:12.581Z,84.40
2017-08-13T22:35:40.335Z,84.40
2017-08-13T22:38:07.982Z,84.50
2017-08-13T22:40:35.622Z,84.60
2017-08-13T22:43:03.301Z,84.50
2017-08-13T22:45:31.337Z,84.50
2017-08-13T22:47:58.966Z,84.50
2017-08-13T22:50:26.719Z,84.10
2017-08-13T22:52:54.365Z,84.10
2017-08-13T22:55:22.005Z,83.80
2017-08-13T22:57:49.693Z,84.10
2017-08-13T23:00:17.730Z,84.50
2017-08-13T23:02:45.761Z,84.80
2017-08-13T23:05:13.454Z,84.80
2017-08-13T23:07:41.094Z,84.60
2017-08-13T23:10:08.726Z,84.80
2017-08-13T23:12:36.832Z,84.60
2017-08-13T23:15:04.535Z,84.60
2017-08-13T23:17:32.586Z,84.50
2017-08-13T23:20:00.675Z,85.00
2017-08-13T23:22:28.341Z,85.00
2017-08-13T23:24:55.982Z,84.90
2017-08-13T23:27:23.661Z,84.80
2017-08-13T23:29:51.311Z,84.90
2017-08-13T23:32:18.941Z,85.00
2017-08-13T23:34:46.655Z,84.70
2017-08-13T23:37:14.286Z,84.60
2017-08-13T23:39:41.915Z,84.40
2017-08-13T23:42:09.630Z,84.20
2017-08-13T23:44:37.274Z,84.20
2017-08-13T23:47:04.910Z,84.20
2017-08-13T23:49:32.675Z,84.20
2017-08-13T23:52:00.322Z,85.10
2017-08-13T23:54:28.051Z,85.40
2017-08-13T23:56:55.926Z,85.20
2017-08-13T23:59:24.059Z,84.90
